Imogene, South Dakota
Current Conditions -  °F | °C
As of 2:53 PM on Friday 28 Nov 2014 (Local Time) from KHEI Reporting Station
Few Clouds Few Clouds  
Wind Chill: 38°   Ceiling: Unl
Heat Index: 41°   Visibility: 10mi
Dew Point: 31°   Wind: 5mph
Humidity: 67%   Direction: 90°E
Pressure: 29.51"   Gusts: NA
Location:  45.6029°N, 102.827°W
Report Text: KHEI 282153Z AUTO 09004KT 10SM FEW120 05/M01 A2951 RMK AO2 SLP010 T00501006
Loading
Personal Weather Stations






























Interactive Weather Map New forecast layout! Learn more

10-Day Weather Forecast

Advertisements
Track Severe Weather on mobile